aviador You're here:

LZTT Decoded Metar

POPRAD in SLOVAKIA
Report Time2018-02-21 05:00:00
UTC Time2018-02-21 05:12:06
Flight Rules ifr IFR
Wind040° at 02 kt
W.Decomp.*RWY 07: 1.7 kt HW 1.1 kt LCW
RWY 09: 1.2 kt HW 1.6 kt LCW
W.Rank040° ranks 11
Current wind is below 040° avg. (7.8)
Visibility3000 m
Phenomena:Light Snow
Clouds:Few 009 Hf
Broken 050 Hf
Expected CloudBase > 400 ft AGL from Temp-Dew spread
Ceiling5,000 ft
Temp-6°C (ISA -16)
Dew Point-7°C (93% RH)
AAT-9.5°C
QNH1013 hPa
Density Alt361 ft
Elevation2,320 ft
Report Wrong Elevation
Raw Report
LZTT 210500Z 04002KT 3000 -SN FEW009 BKN050 M06/M07 Q1013=

Extra information for LZTT:More info

Metar Taf Metar & Taf Last 4 Metars F.Rules Stats Wind Profile Meteogram Temp Stats Airport Information Weather charts Add Link Nearby VenuesMetar ALERT Operation Metar Decoded Social comments